Time;durP1;ratioP1;P1;durP2;ratioP2;P2;SDS_P1;SDS_P2;PMS_P1;PMS_P2;Temp;Humidity;BMP_temperature;BMP_pressure;BME280_temperature;BME280_humidity;BME280_pressure;Samples;Min_cycle;Max_cycle;Signal;HPM_P1;HPM_P2
2021/04/18 00:00:55;;;;;;;;;;;;;;;4.11;73.66;101243.71;1734817;83;20277;-70
2021/04/18 00:03:27;;;;;;;;;;;;;;;4.09;73.68;101241.20;1735114;83;20565;-70
2021/04/18 00:06:00;;;;;;;;;;;;;;;4.10;73.77;101239.45;1734664;83;20333;-70
2021/04/18 00:08:31;;;;;;;;;;;;;;;4.12;73.73;101241.52;1735536;83;20259;-70
2021/04/18 00:11:03;;;;;;;;;;;;;;;4.10;73.49;101244.64;1734770;83;20233;-70
2021/04/18 00:13:35;;;;;;;;;;;;;;;4.04;73.27;101241.02;1735083;83;20296;-70
2021/04/18 00:16:09;;;;;;;;;;;;;;;3.97;73.08;101246.95;1734889;83;20601;-70
2021/04/18 00:18:44;;;;;;;;;;;;;;;3.90;72.87;101239.08;1735518;83;20614;-70
2021/04/18 00:21:17;;;;;;;;;;;;;;;3.84;72.74;101234.64;1734647;83;20277;-70
2021/04/18 00:23:50;;;;;;;;;;;;;;;3.77;72.55;101239.70;1735002;83;20272;-70
2021/04/18 00:26:23;;;;;;;;;;;;;;;3.67;72.63;101233.25;1734713;83;20161;-70
2021/04/18 00:28:55;;;;;;;;;;;;;;;3.62;72.58;101235.20;1735585;83;20232;-70
2021/04/18 00:31:28;;;;;;;;;;;;;;;3.53;72.50;101239.50;1734790;83;20265;-71
2021/04/18 00:34:00;;;;;;;;;;;;;;;3.47;72.48;101239.76;1735095;83;20304;-71
2021/04/18 00:36:33;;;;;;;;;;;;;;;3.42;72.40;101237.37;1734735;83;20237;-71
2021/04/18 00:39:05;;;;;;;;;;;;;;;3.36;72.45;101246.72;1735614;83;20272;-71
2021/04/18 00:41:37;;;;;;;;;;;;;;;3.29;72.32;101241.42;1736073;83;20196;-70
2021/04/18 00:44:12;;;;;;;;;;;;;;;3.18;72.39;101243.60;1736584;83;20200;-70
2021/04/18 00:46:45;;;;;;;;;;;;;;;3.10;72.62;101237.94;1705268;83;20313;-71
2021/04/18 00:49:18;;;;;;;;;;;;;;;3.06;72.85;101237.66;1744645;82;20292;-71
2021/04/18 00:51:49;;;;;;;;;;;;;;;3.03;72.96;101233.48;1751582;82;20673;-71
2021/04/18 00:54:21;;;;;;;;;;;;;;;3.03;73.17;101233.92;1751516;82;21147;-71
2021/04/18 00:56:54;;;;;;;;;;;;;;;3.04;73.33;101224.80;1752129;82;20212;-71
2021/04/18 00:59:25;;;;;;;;;;;;;;;3.05;73.45;101226.94;1751429;82;20680;-71
2021/04/18 01:01:59;;;;;;;;;;;;;;;3.06;73.63;101232.03;1752607;82;20216;-71
2021/04/18 01:04:31;;;;;;;;;;;;;;;3.07;73.78;101227.26;1751843;82;20264;-70
2021/04/18 01:07:06;;;;;;;;;;;;;;;3.05;73.78;101225.20;1752496;82;20819;-71
2021/04/18 01:09:39;;;;;;;;;;;;;;;3.02;73.76;101221.44;1752237;82;21080;-71
2021/04/18 01:12:11;;;;;;;;;;;;;;;2.98;73.83;101212.58;1750988;82;20562;-71
2021/04/18 01:14:43;;;;;;;;;;;;;;;2.93;73.84;101209.34;1751892;82;20315;-71
2021/04/18 01:17:16;;;;;;;;;;;;;;;2.92;73.92;101206.36;1751645;82;20323;-71
2021/04/18 01:19:49;;;;;;;;;;;;;;;2.89;73.89;101203.45;1753530;82;20278;-70
2021/04/18 01:22:21;;;;;;;;;;;;;;;2.83;73.91;101203.72;1751935;82;20288;-70
2021/04/18 01:24:58;;;;;;;;;;;;;;;2.79;73.85;101198.30;1727843;82;20327;-70
2021/04/18 01:27:39;;;;;;;;;;;;;;;2.73;73.88;101199.83;1751893;82;20196;-70
2021/04/18 01:30:13;;;;;;;;;;;;;;;2.68;73.92;101197.44;1754731;82;20211;-69
2021/04/18 01:32:47;;;;;;;;;;;;;;;2.65;74.06;101196.27;1755330;82;20176;-69
2021/04/18 01:35:21;;;;;;;;;;;;;;;2.67;74.09;101198.80;1753521;82;20279;-71
2021/04/18 01:37:53;;;;;;;;;;;;;;;2.65;74.16;101200.61;1753737;82;20260;-70
2021/04/18 01:40:29;;;;;;;;;;;;;;;2.66;74.12;101194.08;1753836;82;20260;-70
2021/04/18 01:43:01;;;;;;;;;;;;;;;2.66;74.09;101195.81;1753674;82;20240;-70
2021/04/18 01:45:32;;;;;;;;;;;;;;;2.67;74.14;101197.52;1752880;82;20590;-71
2021/04/18 01:48:06;;;;;;;;;;;;;;;2.68;74.23;101194.84;1753862;82;20216;-71
2021/04/18 01:50:43;;;;;;;;;;;;;;;2.74;74.31;101192.47;1739079;82;20237;-71
2021/04/18 01:53:15;;;;;;;;;;;;;;;2.77;74.29;101191.03;1732288;83;20683;-70
2021/04/18 01:55:48;;;;;;;;;;;;;;;2.79;74.25;101197.00;1731474;83;20637;-71
2021/04/18 01:58:20;;;;;;;;;;;;;;;2.80;74.33;101194.78;1732319;83;20280;-70
2021/04/18 02:00:54;;;;;;;;;;;;;;;2.82;74.39;101189.09;1729734;82;20225;-69
2021/04/18 02:03:27;;;;;;;;;;;;;;;2.83;74.34;101188.20;1714051;83;20277;-70
2021/04/18 02:06:00;;;;;;;;;;;;;;;2.83;74.11;101190.79;1731469;83;20280;-70
2021/04/18 02:08:34;;;;;;;;;;;;;;;2.80;73.96;101188.32;1732448;83;20465;-70
2021/04/18 02:11:06;;;;;;;;;;;;;;;2.78;73.85;101188.84;1714424;83;20236;-70
2021/04/18 02:13:41;;;;;;;;;;;;;;;2.77;73.80;101197.49;1730491;83;20182;-70
2021/04/18 02:16:14;;;;;;;;;;;;;;;2.75;73.66;101191.55;1729797;82;20622;-70
2021/04/18 02:18:51;;;;;;;;;;;;;;;2.72;73.49;101199.45;1730432;82;20173;-70
2021/04/18 02:21:24;;;;;;;;;;;;;;;2.69;73.53;101194.41;1733769;83;20197;-69
2021/04/18 02:23:58;;;;;;;;;;;;;;;2.68;73.50;101194.00;1731616;83;20200;-70
2021/04/18 02:26:30;;;;;;;;;;;;;;;2.66;73.47;101193.23;1731612;83;20276;-70
2021/04/18 02:29:03;;;;;;;;;;;;;;;2.64;73.51;101192.45;1732506;83;20229;-70
2021/04/18 02:31:38;;;;;;;;;;;;;;;2.62;73.46;101188.66;1730643;83;20550;-71
2021/04/18 02:34:10;;;;;;;;;;;;;;;2.63;73.54;101185.59;1732333;83;20217;-71
2021/04/18 02:36:43;;;;;;;;;;;;;;;2.65;73.58;101196.73;1730528;83;20224;-71
2021/04/18 02:39:15;;;;;;;;;;;;;;;2.68;73.50;101193.55;1732302;83;20237;-71
2021/04/18 02:41:49;;;;;;;;;;;;;;;2.69;73.33;101195.70;1731996;83;20257;-71
2021/04/18 02:44:24;;;;;;;;;;;;;;;2.68;73.33;101198.73;1714182;83;20272;-70
2021/04/18 02:46:56;;;;;;;;;;;;;;;2.73;73.47;101201.12;1731221;83;20229;-70
2021/04/18 02:49:31;;;;;;;;;;;;;;;2.77;73.63;101196.20;1732406;83;20241;-70
2021/04/18 02:52:04;;;;;;;;;;;;;;;2.86;73.74;101198.88;1731160;82;20293;-71
2021/04/18 02:54:37;;;;;;;;;;;;;;;2.94;73.71;101201.98;1732440;83;20269;-71
2021/04/18 02:57:11;;;;;;;;;;;;;;;3.01;73.59;101205.99;1731125;83;20221;-70
2021/04/18 02:59:43;;;;;;;;;;;;;;;3.07;73.55;101209.16;1732289;83;20201;-70
2021/04/18 03:02:16;;;;;;;;;;;;;;;3.15;73.56;101203.17;1732075;83;20225;-70
2021/04/18 03:04:49;;;;;;;;;;;;;;;3.24;73.34;101206.68;1732251;83;20161;-70
2021/04/18 03:07:24;;;;;;;;;;;;;;;3.33;73.04;101210.16;1731081;83;20672;-70
2021/04/18 03:09:56;;;;;;;;;;;;;;;3.44;72.84;101210.96;1733857;83;20229;-70
2021/04/18 03:12:29;;;;;;;;;;;;;;;3.58;72.59;101207.34;1733175;83;20273;-71
2021/04/18 03:15:02;;;;;;;;;;;;;;;3.71;72.15;101209.73;1732495;83;20316;-71
2021/04/18 03:17:34;;;;;;;;;;;;;;;3.85;71.58;101214.28;1705556;83;20287;-71
2021/04/18 03:20:10;;;;;;;;;;;;;;;3.97;71.08;101211.12;1730554;83;20661;-72
2021/04/18 03:22:43;;;;;;;;;;;;;;;4.05;70.71;101216.36;1732048;83;20257;-70
2021/04/18 03:25:15;;;;;;;;;;;;;;;4.11;70.32;101215.20;1732339;83;20256;-70
2021/04/18 03:27:48;;;;;;;;;;;;;;;4.20;70.05;101214.80;1731135;83;20407;-70
2021/04/18 03:30:22;;;;;;;;;;;;;;;4.36;69.79;101219.63;1730334;82;20236;-70
2021/04/18 03:32:56;;;;;;;;;;;;;;;4.49;69.50;101217.30;1730652;82;20261;-71
2021/04/18 03:35:29;;;;;;;;;;;;;;;4.68;69.38;101219.38;1732296;83;20277;-71
2021/04/18 03:38:02;;;;;;;;;;;;;;;4.91;69.02;101215.17;1731044;83;20280;-71
2021/04/18 03:40:35;;;;;;;;;;;;;;;5.17;68.51;101208.66;1732181;83;20201;-71
2021/04/18 03:43:08;;;;;;;;;;;;;;;5.38;67.97;101210.98;1731880;83;20269;-71
2021/04/18 03:45:40;;;;;;;;;;;;;;;5.57;67.65;101218.64;1713543;83;20655;-71
2021/04/18 03:48:13;;;;;;;;;;;;;;;5.81;67.30;101216.50;1731005;83;20218;-70
2021/04/18 03:50:46;;;;;;;;;;;;;;;6.11;66.87;101217.48;1732264;83;20217;-71
2021/04/18 03:53:20;;;;;;;;;;;;;;;6.54;66.27;101222.42;1731564;82;20205;-71
2021/04/18 03:55:59;;;;;;;;;;;;;;;7.05;65.33;101222.00;1733346;83;20270;-71
2021/04/18 03:58:35;;;;;;;;;;;;;;;7.57;64.12;101214.98;1708682;83;20256;-69
2021/04/18 04:01:08;;;;;;;;;;;;;;;8.08;62.85;101220.41;1737025;83;20229;-70
2021/04/18 04:03:41;;;;;;;;;;;;;;;8.61;61.35;101221.38;1734803;83;20225;-70
2021/04/18 04:06:16;;;;;;;;;;;;;;;9.11;59.75;101224.55;1735646;83;20598;-70
2021/04/18 04:08:50;;;;;;;;;;;;;;;9.61;57.96;101223.70;1733672;82;20688;-70
2021/04/18 04:11:23;;;;;;;;;;;;;;;10.17;56.46;101227.13;1735454;83;20277;-70
2021/04/18 04:13:55;;;;;;;;;;;;;;;10.77;54.84;101215.28;1734750;83;20213;-70
2021/04/18 04:16:31;;;;;;;;;;;;;;;11.32;52.88;101209.33;1735138;82;20312;-70
2021/04/18 04:19:04;;;;;;;;;;;;;;;11.82;51.55;101211.48;1707477;83;20269;-70
2021/04/18 04:21:40;;;;;;;;;;;;;;;12.31;50.48;101214.14;1735338;83;20289;-70
2021/04/18 04:24:23;;;;;;;;;;;;;;;12.82;49.24;101212.02;1734162;82;20257;-70
2021/04/18 04:26:55;;;;;;;;;;;;;;;13.39;47.94;101216.02;1735686;83;20614;-70
2021/04/18 04:29:27;;;;;;;;;;;;;;;13.88;46.38;101218.70;1734545;83;20175;-71
2021/04/18 04:31:59;;;;;;;;;;;;;;;14.26;44.99;101223.73;1735295;83;20237;-70
2021/04/18 04:34:33;;;;;;;;;;;;;;;14.50;44.44;101222.39;1734583;83;20273;-71
2021/04/18 04:37:05;;;;;;;;;;;;;;;14.80;43.68;101213.53;1735354;83;20177;-71
2021/04/18 04:39:38;;;;;;;;;;;;;;;15.05;42.81;101208.97;1734510;83;20292;-71
2021/04/18 04:42:11;;;;;;;;;;;;;;;15.19;42.25;101203.25;1735661;83;20280;-70
2021/04/18 04:44:43;;;;;;;;;;;;;;;15.17;41.95;101205.20;1734515;83;20306;-71
2021/04/18 04:47:15;;;;;;;;;;;;;;;14.93;42.56;101210.58;1736124;83;20276;-71
2021/04/18 04:49:47;;;;;;;;;;;;;;;14.99;42.94;101212.19;1736177;83;20262;-70
2021/04/18 04:52:20;;;;;;;;;;;;;;;15.18;42.80;101208.67;1735888;83;20236;-71
2021/04/18 04:54:55;;;;;;;;;;;;;;;15.35;42.67;101211.90;1732814;82;20213;-70
2021/04/18 04:57:28;;;;;;;;;;;;;;;15.64;42.36;101211.34;1732226;83;20233;-70
2021/04/18 05:00:00;;;;;;;;;;;;;;;16.00;41.70;101212.28;1731486;83;20233;-71
2021/04/18 05:02:31;;;;;;;;;;;;;;;16.41;41.04;101214.35;1732376;83;20284;-70
2021/04/18 05:05:04;;;;;;;;;;;;;;;16.88;40.45;101214.99;1731588;83;20269;-71
2021/04/18 05:07:39;;;;;;;;;;;;;;;17.46;39.65;101211.22;1732270;83;20233;-71
2021/04/18 05:10:11;;;;;;;;;;;;;;;18.07;38.75;101210.55;1731696;83;20557;-71
2021/04/18 05:12:43;;;;;;;;;;;;;;;18.74;37.79;101210.85;1732549;83;20197;-71
2021/04/18 05:15:18;;;;;;;;;;;;;;;19.31;36.76;101215.59;1730510;83;20192;-70
2021/04/18 05:17:50;;;;;;;;;;;;;;;19.72;35.69;101210.20;1732173;83;20281;-71
2021/04/18 05:20:23;;;;;;;;;;;;;;;19.69;35.19;101208.71;1731462;83;20229;-72
2021/04/18 05:22:55;;;;;;;;;;;;;;;19.61;35.29;101209.25;1732523;83;20173;-72
2021/04/18 05:25:27;;;;;;;;;;;;;;;19.32;35.53;101203.97;1731553;83;20174;-71
2021/04/18 05:28:01;;;;;;;;;;;;;;;18.95;35.94;101214.31;1714286;83;20977;-71
2021/04/18 05:30:33;;;;;;;;;;;;;;;18.46;36.73;101217.43;1731789;83;20280;-71
2021/04/18 05:33:07;;;;;;;;;;;;;;;18.20;37.38;101219.86;1730567;83;20514;-71
2021/04/18 05:35:39;;;;;;;;;;;;;;;18.08;37.62;101217.97;1731492;83;20213;-71
2021/04/18 05:38:12;;;;;;;;;;;;;;;18.12;37.71;101219.33;1734109;83;20669;-70
2021/04/18 05:40:43;;;;;;;;;;;;;;;18.44;37.71;101218.06;1732995;83;20621;-71
2021/04/18 05:43:16;;;;;;;;;;;;;;;18.64;37.10;101213.31;1732346;83;20205;-71
2021/04/18 05:45:48;;;;;;;;;;;;;;;18.57;37.10;101210.99;1731674;83;20674;-71
2021/04/18 05:48:19;;;;;;;;;;;;;;;18.48;37.12;101215.96;1732224;83;20233;-71
2021/04/18 05:50:53;;;;;;;;;;;;;;;18.57;36.92;101212.31;1731530;83;20170;-71
2021/04/18 05:53:26;;;;;;;;;;;;;;;18.92;36.53;101203.19;1732534;83;20280;-71
2021/04/18 05:55:58;;;;;;;;;;;;;;;19.11;36.01;101203.67;1733354;82;20201;-71
2021/04/18 05:58:30;;;;;;;;;;;;;;;19.19;35.86;101208.15;1730818;82;20300;-70
2021/04/18 06:01:02;;;;;;;;;;;;;;;19.78;35.33;101206.84;1731497;83;20381;-70
2021/04/18 06:03:36;;;;;;;;;;;;;;;20.10;34.87;101207.53;1714070;83;20252;-71
2021/04/18 06:06:10;;;;;;;;;;;;;;;20.52;34.35;101208.94;1731590;83;20334;-71
2021/04/18 06:08:41;;;;;;;;;;;;;;;21.41;33.29;101200.51;1732135;83;20358;-71
2021/04/18 06:11:15;;;;;;;;;;;;;;;22.40;31.75;101201.75;1731377;83;20221;-71
2021/04/18 06:13:48;;;;;;;;;;;;;;;22.89;30.70;101197.80;1732362;83;20169;-71
2021/04/18 06:16:20;;;;;;;;;;;;;;;23.35;30.14;101196.33;1731480;83;20221;-71
2021/04/18 06:18:54;;;;;;;;;;;;;;;23.37;29.68;101187.60;1732079;83;20255;-71
2021/04/18 06:21:26;;;;;;;;;;;;;;;23.83;29.41;101188.67;1731527;83;20984;-70
2021/04/18 06:23:58;;;;;;;;;;;;;;;24.26;28.77;101190.58;1732390;83;20297;-70
2021/04/18 06:26:31;;;;;;;;;;;;;;;24.49;28.20;101189.69;1732566;83;20221;-69
2021/04/18 06:29:03;;;;;;;;;;;;;;;24.86;27.90;101183.46;1733525;83;20257;-70
2021/04/18 06:31:36;;;;;;;;;;;;;;;25.17;27.61;101187.12;1731523;83;20209;-71
2021/04/18 06:34:09;;;;;;;;;;;;;;;25.53;26.85;101183.97;1732456;83;20229;-71
2021/04/18 06:36:43;;;;;;;;;;;;;;;25.91;26.30;101190.22;1731715;83;20194;-71
2021/04/18 06:39:15;;;;;;;;;;;;;;;26.21;25.55;101187.84;1732099;83;20613;-71
2021/04/18 06:41:49;;;;;;;;;;;;;;;26.77;25.08;101193.78;1731465;83;20276;-71
2021/04/18 06:44:22;;;;;;;;;;;;;;;27.09;24.17;101192.14;1732714;83;20277;-73
2021/04/18 06:46:57;;;;;;;;;;;;;;;27.28;24.10;101183.05;1731544;83;20313;-73
2021/04/18 06:49:29;;;;;;;;;;;;;;;27.59;23.71;101185.33;1732029;83;20233;-73
2021/04/18 06:52:02;;;;;;;;;;;;;;;28.02;23.36;101182.02;1731415;83;20265;-73
2021/04/18 06:54:33;;;;;;;;;;;;;;;28.43;22.90;101182.05;1732430;83;20195;-72
2021/04/18 06:57:05;;;;;;;;;;;;;;;28.93;22.23;101186.53;1731323;83;20165;-74
2021/04/18 06:59:40;;;;;;;;;;;;;;;29.18;21.56;101184.47;1731874;82;20233;-73
2021/04/18 07:02:23;;;;;;;;;;;;;;;29.41;21.09;101176.86;1731552;82;20221;-72
2021/04/18 07:04:57;;;;;;;;;;;;;;;29.60;20.58;101182.92;1732408;83;20273;-73
2021/04/18 07:07:35;;;;;;;;;;;;;;;29.54;20.35;101179.84;1731137;83;20278;-73
2021/04/18 07:10:12;;;;;;;;;;;;;;;29.64;20.34;101174.10;1731942;83;20652;-72
2021/04/18 07:12:43;;;;;;;;;;;;;;;29.85;20.33;101174.83;1731235;83;20205;-74
2021/04/18 07:15:18;;;;;;;;;;;;;;;30.30;19.87;101178.94;1733499;83;20228;-72
2021/04/18 07:17:50;;;;;;;;;;;;;;;30.75;18.97;101172.14;1730614;83;20209;-70
2021/04/18 07:20:22;;;;;;;;;;;;;;;30.87;18.31;101179.63;1731999;83;20511;-75
2021/04/18 07:22:54;;;;;;;;;;;;;;;31.04;18.44;101176.94;1731202;83;20281;-74
2021/04/18 07:25:32;;;;;;;;;;;;;;;31.46;18.05;101171.32;1719801;81;20247;-72
2021/04/18 07:28:05;;;;;;;;;;;;;;;31.77;17.14;101166.56;1727694;81;20210;-71
2021/04/18 07:30:48;;;;;;;;;;;;;;;32.14;17.09;101164.55;1722400;81;20275;-72
2021/04/18 07:33:20;;;;;;;;;;;;;;;32.56;16.20;101159.53;1763139;81;20176;-71
2021/04/18 07:35:52;;;;;;;;;;;;;;;32.92;15.99;101157.08;1711054;81;20604;-73
2021/04/18 07:38:29;;;;;;;;;;;;;;;32.66;15.92;101160.16;1705953;83;20238;-71
2021/04/18 07:41:18;;;;;;;;;;;;;;;32.55;15.81;101159.25;1706593;81;20611;-73
2021/04/18 07:43:52;;;;;;;;;;;;;;;32.39;15.91;101153.92;1702046;84;20551;-71
2021/04/18 07:46:24;;;;;;;;;;;;;;;32.02;16.10;101152.52;1702498;84;20682;-71
2021/04/18 07:48:56;;;;;;;;;;;;;;;31.67;16.53;101148.84;1701499;84;20693;-72
2021/04/18 07:51:28;;;;;;;;;;;;;;;31.75;16.35;101140.80;1701012;84;20285;-72
2021/04/18 07:54:00;;;;;;;;;;;;;;;31.96;16.21;101140.77;1700760;84;20298;-73
2021/04/18 07:56:33;;;;;;;;;;;;;;;32.11;16.40;101141.49;1702094;84;20313;-73
2021/04/18 07:59:07;;;;;;;;;;;;;;;32.34;16.59;101137.09;1700334;84;20226;-71
2021/04/18 08:01:39;;;;;;;;;;;;;;;32.69;16.54;101134.42;1700758;84;20250;-69
2021/04/18 08:04:13;;;;;;;;;;;;;;;32.99;16.11;101136.78;1678173;85;20294;-70
2021/04/18 08:06:47;;;;;;;;;;;;;;;33.26;15.74;101129.91;1705349;84;20535;-72
2021/04/18 08:09:22;;;;;;;;;;;;;;;33.44;15.61;101126.70;1681192;84;20596;-71
2021/04/18 08:12:14;;;;;;;;;;;;;;;33.58;15.22;101124.36;1710876;82;20375;-71
2021/04/18 08:14:49;;;;;;;;;;;;;;;33.55;15.35;101111.31;1720752;81;20258;-69
2021/04/18 08:17:20;;;;;;;;;;;;;;;33.39;15.17;101110.96;1727878;81;20272;-72
2021/04/18 08:20:01;;;;;;;;;;;;;;;33.11;15.23;101110.29;1715211;82;20278;-73
2021/04/18 08:22:59;;;;;;;;;;;;;;;32.79;15.41;101099.23;1711417;84;20663;-71
2021/04/18 08:25:35;;;;;;;;;;;;;;;32.59;15.40;101093.96;1711862;84;20616;-71
2021/04/18 08:28:12;;;;;;;;;;;;;;;32.16;15.75;101096.84;1735983;81;20191;-71
2021/04/18 08:31:04;;;;;;;;;;;;;;;31.87;16.44;101094.91;1711396;82;20279;-71
2021/04/18 08:33:44;;;;;;;;;;;;;;;31.68;16.60;101094.98;1719564;82;20219;-72
2021/04/18 08:36:26;;;;;;;;;;;;;;;31.60;17.04;101091.94;1711771;84;20291;-71
2021/04/18 08:39:11;;;;;;;;;;;;;;;31.84;16.92;101094.59;1711800;82;20212;-72
2021/04/18 08:41:48;;;;;;;;;;;;;;;32.07;16.48;101088.09;1711511;82;20273;-73
2021/04/18 08:44:37;;;;;;;;;;;;;;;32.21;16.13;101086.05;1712260;84;20221;-73
2021/04/18 08:47:15;;;;;;;;;;;;;;;32.24;15.97;101083.36;1711237;82;20586;-73
2021/04/18 08:49:52;;;;;;;;;;;;;;;32.22;15.85;101082.81;1711617;82;20257;-72
2021/04/18 08:52:27;;;;;;;;;;;;;;;32.28;15.42;101078.52;1713357;82;20680;-74
2021/04/18 08:55:10;;;;;;;;;;;;;;;32.17;15.06;101077.34;1741042;81;20165;-72
2021/04/18 08:57:42;;;;;;;;;;;;;;;31.88;15.11;101067.30;1729024;82;20241;-71
2021/04/18 09:00:15;;;;;;;;;;;;;;;31.06;15.86;101066.09;1716184;82;20273;-71
2021/04/18 09:02:57;;;;;;;;;;;;;;;30.04;16.45;101068.82;1739344;81;20665;-71
2021/04/18 09:05:29;;;;;;;;;;;;;;;28.86;16.86;101065.06;1736024;82;20308;-72
2021/04/18 09:08:06;;;;;;;;;;;;;;;27.56;18.00;101067.45;1734285;83;20625;-71
2021/04/18 09:10:39;;;;;;;;;;;;;;;26.53;19.06;101069.96;1717182;83;20686;-71
2021/04/18 09:13:18;;;;;;;;;;;;;;;25.67;20.07;101074.30;1717245;83;20242;-73
2021/04/18 09:15:54;;;;;;;;;;;;;;;24.91;20.85;101063.13;1722051;83;20298;-71
2021/04/18 09:18:26;;;;;;;;;;;;;;;24.08;21.42;101073.94;1720415;83;20231;-70
2021/04/18 09:21:15;;;;;;;;;;;;;;;23.42;22.07;101068.92;1721983;83;20228;-71
2021/04/18 09:24:03;;;;;;;;;;;;;;;23.02;22.41;101072.40;1725185;83;20257;-71
2021/04/18 09:26:35;;;;;;;;;;;;;;;22.54;22.73;101068.27;1727660;83;20280;-71
2021/04/18 09:29:10;;;;;;;;;;;;;;;22.19;23.14;101059.84;1732456;83;20272;-70
2021/04/18 09:31:59;;;;;;;;;;;;;;;22.01;23.80;101066.98;1729318;83;20275;-70
2021/04/18 09:34:31;;;;;;;;;;;;;;;21.91;24.08;101065.13;1730515;83;20681;-70
2021/04/18 09:37:06;;;;;;;;;;;;;;;21.90;24.24;101066.67;1733337;83;20173;-71
2021/04/18 09:39:38;;;;;;;;;;;;;;;21.88;24.10;101068.17;1732818;83;20265;-71
2021/04/18 09:42:10;;;;;;;;;;;;;;;21.75;24.10;101065.84;1736377;83;20259;-71
2021/04/18 09:44:45;;;;;;;;;;;;;;;21.58;24.52;101061.77;1727445;83;20602;-71
2021/04/18 09:47:21;;;;;;;;;;;;;;;21.43;24.45;101066.62;1728503;83;20272;-71
2021/04/18 09:50:01;;;;;;;;;;;;;;;21.31;24.87;101066.77;1714917;83;20308;-71
2021/04/18 09:52:39;;;;;;;;;;;;;;;21.24;25.26;101067.20;1731838;83;20292;-72
2021/04/18 09:55:26;;;;;;;;;;;;;;;21.21;25.43;101070.72;1734308;83;20262;-71
2021/04/18 09:58:00;;;;;;;;;;;;;;;21.13;25.19;101069.01;1728491;83;20281;-70
2021/04/18 10:00:36;;;;;;;;;;;;;;;20.97;25.04;101063.81;1687401;85;20691;-70
2021/04/18 10:03:14;;;;;;;;;;;;;;;20.79;24.99;101058.05;1690845;84;20695;-70
2021/04/18 10:05:49;;;;;;;;;;;;;;;20.61;25.37;101064.23;1695006;83;20232;-70
2021/04/18 10:08:32;;;;;;;;;;;;;;;20.44;26.54;101056.91;1681984;84;20234;-70
2021/04/18 10:11:14;;;;;;;;;;;;;;;20.29;27.58;101060.52;1703766;84;20566;-70
2021/04/18 10:13:57;;;;;;;;;;;;;;;20.32;27.81;101063.66;1703323;84;20699;-70
2021/04/18 10:16:33;;;;;;;;;;;;;;;20.40;28.00;101060.08;1703677;83;20302;-70
2021/04/18 10:19:24;;;;;;;;;;;;;;;20.53;27.84;101063.80;1704304;83;20287;-71
2021/04/18 10:22:08;;;;;;;;;;;;;;;20.64;27.68;101064.67;1703603;83;20290;-70
2021/04/18 10:24:44;;;;;;;;;;;;;;;20.76;27.67;101065.05;1704874;83;20306;-71
2021/04/18 10:27:20;;;;;;;;;;;;;;;20.86;27.16;101066.11;1705482;83;20239;-70
2021/04/18 10:29:53;;;;;;;;;;;;;;;21.05;27.23;101063.77;1707174;83;20404;-71
2021/04/18 10:32:26;;;;;;;;;;;;;;;21.30;26.95;101062.98;1694523;84;20228;-71
2021/04/18 10:34:59;;;;;;;;;;;;;;;21.43;25.81;101059.95;1690952;83;20293;-71
2021/04/18 10:37:31;;;;;;;;;;;;;;;21.42;25.88;101059.63;1681476;84;20632;-71
2021/04/18 10:40:03;;;;;;;;;;;;;;;21.34;26.10;101060.25;1703001;83;20262;-71
2021/04/18 10:42:35;;;;;;;;;;;;;;;21.25;26.57;101055.55;1702742;83;20313;-71
2021/04/18 10:45:09;;;;;;;;;;;;;;;21.15;26.62;101056.83;1705188;84;20218;-71
2021/04/18 10:47:41;;;;;;;;;;;;;;;21.01;26.49;101057.14;1704154;83;20246;-71
2021/04/18 10:50:14;;;;;;;;;;;;;;;20.87;27.03;101056.64;1704501;84;20804;-71
2021/04/18 10:52:46;;;;;;;;;;;;;;;20.79;26.91;101045.57;1703316;83;20328;-71
2021/04/18 10:55:19;;;;;;;;;;;;;;;20.77;27.17;101048.92;1704023;84;20301;-72
2021/04/18 10:57:52;;;;;;;;;;;;;;;20.87;26.81;101049.15;1705055;83;20266;-71
2021/04/18 11:00:26;;;;;;;;;;;;;;;20.83;26.27;101045.52;1709305;83;20268;-70
2021/04/18 11:02:58;;;;;;;;;;;;;;;20.63;27.10;101044.42;1714542;83;20273;-71
2021/04/18 11:05:32;;;;;;;;;;;;;;;20.52;27.39;101042.19;1711226;83;20289;-72
2021/04/18 11:08:04;;;;;;;;;;;;;;;20.45;27.58;101041.75;1717983;81;20274;-71
2021/04/18 11:10:36;;;;;;;;;;;;;;;20.34;27.79;101046.19;1747748;81;20215;-72
2021/04/18 11:13:08;;;;;;;;;;;;;;;20.22;27.83;101043.14;1732785;81;20285;-71
2021/04/18 11:15:42;;;;;;;;;;;;;;;20.11;27.90;101037.70;1729863;81;20624;-71
2021/04/18 11:18:14;;;;;;;;;;;;;;;19.96;28.07;101034.19;1726980;83;20174;-70
2021/04/18 11:20:47;;;;;;;;;;;;;;;19.83;28.32;101031.28;1702827;83;20246;-70
2021/04/18 11:23:19;;;;;;;;;;;;;;;19.70;28.35;101028.39;1708277;83;20305;-71
2021/04/18 11:25:52;;;;;;;;;;;;;;;19.63;28.28;101027.42;1730705;82;20661;-71
2021/04/18 11:28:24;;;;;;;;;;;;;;;19.53;28.32;101026.84;1726489;81;20629;-71
2021/04/18 11:30:56;;;;;;;;;;;;;;;19.41;28.37;101024.25;1730711;83;20225;-71
2021/04/18 11:33:28;;;;;;;;;;;;;;;19.36;28.58;101018.63;1730609;83;20276;-70
2021/04/18 11:36:01;;;;;;;;;;;;;;;19.33;28.71;101020.27;1714111;83;20699;-71
2021/04/18 11:38:33;;;;;;;;;;;;;;;19.19;28.38;101017.02;1698297;83;20193;-71
2021/04/18 11:41:05;;;;;;;;;;;;;;;19.06;28.93;101020.22;1729039;82;20645;-72
2021/04/18 11:43:37;;;;;;;;;;;;;;;18.95;28.46;101012.65;1719626;83;20169;-69
2021/04/18 11:46:13;;;;;;;;;;;;;;;18.89;28.64;101014.64;1702575;83;20199;-70
2021/04/18 11:48:46;;;;;;;;;;;;;;;18.81;28.60;101013.37;1701409;84;20242;-70
2021/04/18 11:51:23;;;;;;;;;;;;;;;18.70;28.77;101012.41;1701228;84;20230;-70
2021/04/18 11:53:55;;;;;;;;;;;;;;;18.63;29.15;101014.89;1700896;83;20298;-70
2021/04/18 11:56:28;;;;;;;;;;;;;;;18.60;28.85;101011.77;1702672;84;20662;-71
2021/04/18 11:59:00;;;;;;;;;;;;;;;18.53;28.40;101006.29;1703553;84;20261;-71
2021/04/18 12:01:34;;;;;;;;;;;;;;;18.42;28.33;101005.79;1702718;84;20226;-71
2021/04/18 12:04:09;;;;;;;;;;;;;;;18.34;28.56;101002.66;1703618;84;20251;-70
2021/04/18 12:06:45;;;;;;;;;;;;;;;18.30;29.00;101000.02;1704456;84;20227;-69
2021/04/18 12:09:20;;;;;;;;;;;;;;;18.29;28.71;100998.87;1701330;83;20230;-70
2021/04/18 12:11:52;;;;;;;;;;;;;;;18.27;28.50;100995.56;1701487;84;20226;-70
2021/04/18 12:14:24;;;;;;;;;;;;;;;18.24;28.42;100998.54;1701593;84;20301;-70
2021/04/18 12:16:55;;;;;;;;;;;;;;;18.20;29.00;100991.41;1701420;84;20698;-70
2021/04/18 12:19:29;;;;;;;;;;;;;;;18.18;28.79;100994.23;1702148;84;20663;-70
2021/04/18 12:22:01;;;;;;;;;;;;;;;18.18;28.69;100995.56;1693852;84;20214;-70
2021/04/18 12:24:33;;;;;;;;;;;;;;;18.20;29.05;100986.63;1702892;84;20745;-71
2021/04/18 12:27:05;;;;;;;;;;;;;;;18.19;28.84;100988.44;1702741;84;20226;-71
2021/04/18 12:29:39;;;;;;;;;;;;;;;18.13;28.74;100986.45;1703168;84;20650;-70
2021/04/18 12:32:12;;;;;;;;;;;;;;;18.06;29.14;100979.67;1702612;84;20277;-70
2021/04/18 12:34:45;;;;;;;;;;;;;;;17.99;28.86;100980.00;1702718;84;20175;-70
2021/04/18 12:37:17;;;;;;;;;;;;;;;17.94;28.71;100973.54;1702593;84;20262;-70
2021/04/18 12:39:50;;;;;;;;;;;;;;;17.92;28.78;100976.36;1703368;84;20189;-71
2021/04/18 12:42:21;;;;;;;;;;;;;;;17.92;28.63;100971.55;1702647;84;20607;-71
2021/04/18 12:44:53;;;;;;;;;;;;;;;17.88;28.67;100972.89;1702895;84;20651;-71
2021/04/18 12:47:27;;;;;;;;;;;;;;;17.84;28.94;100973.70;1702901;84;20670;-70
2021/04/18 12:49:59;;;;;;;;;;;;;;;17.81;28.99;100974.05;1708897;83;20602;-71
2021/04/18 12:52:31;;;;;;;;;;;;;;;17.77;28.89;100972.70;1732824;83;20655;-71
2021/04/18 12:55:04;;;;;;;;;;;;;;;17.75;29.03;100968.08;1733778;83;20272;-71
2021/04/18 12:57:36;;;;;;;;;;;;;;;17.72;28.88;100971.05;1732310;83;20284;-71
2021/04/18 13:00:10;;;;;;;;;;;;;;;17.70;29.00;100966.42;1732674;83;20236;-71
2021/04/18 13:02:43;;;;;;;;;;;;;;;17.68;29.08;100967.57;1731841;83;20236;-71
2021/04/18 13:05:16;;;;;;;;;;;;;;;17.70;29.36;100965.09;1731778;83;20285;-71
2021/04/18 13:07:48;;;;;;;;;;;;;;;17.70;29.32;100958.47;1731678;83;20281;-71
2021/04/18 13:10:24;;;;;;;;;;;;;;;17.73;29.42;100963.94;1731454;82;20239;-70
2021/04/18 13:12:54;;;;;;;;;;;;;;;17.75;29.33;100964.59;1732960;83;20299;-71
2021/04/18 13:15:27;;;;;;;;;;;;;;;17.76;29.22;100965.77;1734032;83;20261;-71